createdAt,value
2023-01-30T00:03:02.731Z,1.46
2023-01-30T00:08:05.954Z,1.47
2023-01-30T00:13:10.057Z,1.47
2023-01-30T00:18:13.182Z,1.48
2023-01-30T00:23:16.219Z,1.46
2023-01-30T00:28:20.418Z,1.46
2023-01-30T00:33:26.258Z,1.46
2023-01-30T00:38:29.390Z,1.50
2023-01-30T00:43:51.447Z,1.51
2023-01-30T00:48:54.789Z,1.49
2023-01-30T00:53:57.859Z,1.48
2023-01-30T00:59:01.089Z,1.47
2023-01-30T01:04:04.592Z,1.48
2023-01-30T01:09:07.721Z,1.50
2023-01-30T01:14:10.799Z,1.48
2023-01-30T01:19:14.116Z,1.46
2023-01-30T01:24:17.930Z,1.48
2023-01-30T01:29:21.156Z,1.46
2023-01-30T01:34:24.252Z,1.47
2023-01-30T01:39:47.325Z,1.49
2023-01-30T01:45:15.310Z,1.49
2023-01-30T01:50:50.023Z,1.46
2023-01-30T01:55:57.226Z,1.44
2023-01-30T02:01:01.325Z,1.44
2023-01-30T02:06:05.806Z,1.45
2023-01-30T02:11:17.806Z,1.42
2023-01-30T02:16:20.945Z,1.42
2023-01-30T02:21:45.871Z,1.39
2023-01-30T02:27:04.082Z,1.37
2023-01-30T02:33:01.513Z,1.38
2023-01-30T02:38:42.404Z,1.42
2023-01-30T02:44:06.292Z,1.39
2023-01-30T02:49:18.919Z,1.42
2023-01-30T02:54:22.024Z,1.43
2023-01-30T02:59:43.983Z,1.40
2023-01-30T03:05:30.409Z,1.42
2023-01-30T03:11:09.361Z,1.40
2023-01-30T03:16:15.255Z,1.41
2023-01-30T03:21:19.786Z,1.44
2023-01-30T03:26:33.159Z,1.40
2023-01-30T03:31:36.493Z,1.41
2023-01-30T03:36:40.028Z,1.45
2023-01-30T03:41:43.167Z,1.49
2023-01-30T03:46:47.167Z,1.46
2023-01-30T03:51:50.289Z,1.44
2023-01-30T03:56:53.385Z,1.44
2023-01-30T04:01:56.684Z,1.46
2023-01-30T04:06:59.792Z,1.47
2023-01-30T04:12:03.050Z,1.46
2023-01-30T04:17:06.896Z,1.45
2023-01-30T04:22:09.975Z,1.43
2023-01-30T04:27:13.062Z,1.42
2023-01-30T04:32:16.255Z,1.41
2023-01-30T04:37:19.353Z,1.35
2023-01-30T04:42:22.461Z,1.31
2023-01-30T04:47:25.689Z,1.24
2023-01-30T04:52:28.779Z,1.22
2023-01-30T04:57:32.091Z,1.19
2023-01-30T05:02:35.196Z,1.18
2023-01-30T05:07:38.313Z,1.15
2023-01-30T05:12:42.018Z,1.14
2023-01-30T05:17:45.045Z,1.14
2023-01-30T05:22:48.137Z,1.10
2023-01-30T05:27:51.340Z,1.07
2023-01-30T05:32:54.546Z,1.05
2023-01-30T05:37:59.406Z,1.06
2023-01-30T05:43:04.984Z,1.04
2023-01-30T05:48:08.166Z,1.03
2023-01-30T05:53:11.290Z,1.03
2023-01-30T05:58:14.478Z,1.03
2023-01-30T06:03:18.205Z,0.99
2023-01-30T06:08:21.305Z,0.99
2023-01-30T06:13:24.448Z,1.02
2023-01-30T06:18:28.545Z,1.00
2023-01-30T06:23:32.368Z,0.93
2023-01-30T06:28:36.845Z,0.93
2023-01-30T06:33:40.019Z,0.95
2023-01-30T06:38:42.998Z,0.93
2023-01-30T06:43:46.229Z,0.91
2023-01-30T06:48:49.255Z,0.92
2023-01-30T06:53:53.324Z,0.94
2023-01-30T06:58:56.568Z,0.94
2023-01-30T07:03:59.763Z,0.96
2023-01-30T07:09:03.624Z,0.97
2023-01-30T07:14:16.239Z,1.00
2023-01-30T07:19:19.377Z,0.98
2023-01-30T07:24:22.577Z,0.98
2023-01-30T07:29:26.162Z,0.96
2023-01-30T07:34:29.582Z,0.93
2023-01-30T07:39:32.697Z,0.88
2023-01-30T07:44:36.105Z,0.82
2023-01-30T07:49:39.311Z,0.79
2023-01-30T07:54:42.411Z,0.76
2023-01-30T07:59:45.434Z,0.79
2023-01-30T08:04:48.651Z,0.82
2023-01-30T08:09:51.947Z,0.81
2023-01-30T08:14:55.083Z,0.84
2023-01-30T08:19:58.176Z,0.85
2023-01-30T08:25:01.486Z,0.86
2023-01-30T08:30:05.569Z,0.89
2023-01-30T08:35:10.274Z,0.88
2023-01-30T08:40:14.975Z,0.86
2023-01-30T08:45:18.109Z,0.90
2023-01-30T08:50:21.295Z,0.95
2023-01-30T08:55:24.499Z,0.96
2023-01-30T09:00:29.186Z,1.00
2023-01-30T09:05:32.976Z,0.99
2023-01-30T09:10:36.891Z,1.03
2023-01-30T09:15:43.275Z,1.00
2023-01-30T09:20:46.962Z,1.03
2023-01-30T09:25:50.519Z,1.06
2023-01-30T09:30:53.889Z,1.11
2023-01-30T09:35:57.444Z,1.11
2023-01-30T09:41:00.563Z,1.07
2023-01-30T09:46:27.743Z,1.10
2023-01-30T09:51:42.968Z,1.10
2023-01-30T09:56:46.644Z,1.14
2023-01-30T10:02:01.836Z,1.21
2023-01-30T10:07:10.655Z,1.22
2023-01-30T10:12:35.679Z,1.23
2023-01-30T10:17:58.776Z,1.28
2023-01-30T10:23:51.719Z,1.38
2023-01-30T10:29:07.587Z,1.45
2023-01-30T10:34:29.618Z,1.48
2023-01-30T10:40:29.866Z,1.63
2023-01-30T10:46:24.922Z,1.71
2023-01-30T10:51:41.581Z,1.84
2023-01-30T10:57:38.987Z,2.00
2023-01-30T11:03:33.673Z,2.04
2023-01-30T11:08:37.285Z,2.06
2023-01-30T11:13:40.335Z,2.14
2023-01-30T11:19:18.946Z,2.02
2023-01-30T11:24:20.919Z,2.00
2023-01-30T11:29:35.689Z,2.04
2023-01-30T11:34:44.452Z,2.01
2023-01-30T11:39:54.801Z,2.05
2023-01-30T11:45:18.533Z,2.15
2023-01-30T11:50:34.088Z,2.17
2023-01-30T11:55:41.737Z,2.27
2023-01-30T12:00:49.833Z,2.38
2023-01-30T12:05:55.581Z,2.44
2023-01-30T12:11:02.591Z,2.62
2023-01-30T12:16:51.779Z,2.68
2023-01-30T12:22:22.849Z,2.78
2023-01-30T12:27:49.187Z,2.68
2023-01-30T12:38:26.781Z,2.64
2023-01-30T12:44:02.305Z,2.66
2023-01-30T12:49:46.176Z,2.77
2023-01-30T12:55:17.254Z,2.78
2023-01-30T13:00:44.813Z,2.89
2023-01-30T13:06:51.130Z,2.98
2023-01-30T13:12:35.439Z,3.03
2023-01-30T13:18:04.286Z,3.00
2023-01-30T13:23:33.004Z,2.91
2023-01-30T13:29:03.454Z,3.17
2023-01-30T13:34:17.602Z,3.13
2023-01-30T13:39:42.846Z,2.95
2023-01-30T13:44:47.073Z,2.86
2023-01-30T13:50:00.507Z,2.82
2023-01-30T13:55:25.741Z,2.88
2023-01-30T14:00:33.897Z,2.96
2023-01-30T14:06:06.352Z,2.93
2023-01-30T14:11:57.381Z,2.88
2023-01-30T14:17:17.891Z,2.86
2023-01-30T14:22:36.898Z,2.91
2023-01-30T14:27:40.282Z,2.92
2023-01-30T14:33:05.072Z,2.97
2023-01-30T14:38:16.078Z,3.02
2023-01-30T14:43:49.711Z,2.99
2023-01-30T14:49:19.757Z,2.90
2023-01-30T14:54:41.218Z,2.83
2023-01-30T15:00:18.784Z,2.83
2023-01-30T15:05:44.209Z,2.76
2023-01-30T15:10:54.304Z,2.65
2023-01-30T15:16:12.197Z,2.62
2023-01-30T15:21:29.294Z,2.62
2023-01-30T15:26:53.988Z,2.62
2023-01-30T15:32:02.665Z,2.59
2023-01-30T15:37:15.474Z,2.60
2023-01-30T15:42:18.573Z,2.59
2023-01-30T15:47:30.795Z,2.58
2023-01-30T15:52:54.257Z,2.59
2023-01-30T15:58:05.278Z,2.57
2023-01-30T16:03:15.670Z,2.54
2023-01-30T16:08:24.294Z,2.56
2023-01-30T16:13:29.345Z,2.59
2023-01-30T16:18:42.027Z,2.53
2023-01-30T16:24:25.024Z,2.51
2023-01-30T16:29:32.483Z,2.53
2023-01-30T16:34:38.960Z,2.52
2023-01-30T16:39:42.751Z,2.52
2023-01-30T16:44:45.970Z,2.55
2023-01-30T16:49:50.586Z,2.57
2023-01-30T16:55:02.671Z,2.60
2023-01-30T17:00:31.404Z,2.59
2023-01-30T17:05:40.927Z,2.56
2023-01-30T17:10:54.900Z,2.53
2023-01-30T17:16:24.753Z,2.54
2023-01-30T17:21:42.499Z,2.56
2023-01-30T17:26:50.235Z,2.57
2023-01-30T17:31:55.291Z,2.57
2023-01-30T17:36:58.573Z,2.53
2023-01-30T17:42:01.685Z,2.51
2023-01-30T17:47:05.304Z,2.50
2023-01-30T17:52:14.866Z,2.47
2023-01-30T17:57:18.203Z,2.47
2023-01-30T18:02:21.592Z,2.47
2023-01-30T18:07:29.652Z,2.42
2023-01-30T18:12:32.814Z,2.40
2023-01-30T18:17:47.128Z,2.43
2023-01-30T18:22:50.719Z,2.44
2023-01-30T18:27:55.437Z,2.47
2023-01-30T18:32:58.679Z,2.48
2023-01-30T18:38:03.010Z,2.49
2023-01-30T18:43:06.610Z,2.52
2023-01-30T18:48:09.815Z,2.53
2023-01-30T18:53:12.921Z,2.53
2023-01-30T18:58:16.242Z,2.53
2023-01-30T19:03:19.710Z,2.55
2023-01-30T19:08:23.470Z,2.57
2023-01-30T19:13:37.016Z,2.59
2023-01-30T19:18:40.164Z,2.61
2023-01-30T19:23:44.004Z,2.59
2023-01-30T19:28:48.688Z,2.55
2023-01-30T19:34:00.902Z,2.52
2023-01-30T19:39:06.395Z,2.52
2023-01-30T19:44:12.096Z,2.52
2023-01-30T19:49:16.066Z,2.50
2023-01-30T19:54:19.396Z,2.49
2023-01-30T19:59:22.585Z,2.45
2023-01-30T20:04:25.821Z,2.46
2023-01-30T20:09:29.310Z,2.49
2023-01-30T20:14:33.304Z,2.50
2023-01-30T20:19:36.752Z,2.50
2023-01-30T20:24:40.068Z,2.46
2023-01-30T20:29:43.379Z,2.45
2023-01-30T20:34:46.592Z,2.46
2023-01-30T20:39:51.330Z,2.46
2023-01-30T20:44:54.445Z,2.48
2023-01-30T20:49:57.646Z,2.49
2023-01-30T20:55:01.166Z,2.50
2023-01-30T21:00:05.773Z,2.50
2023-01-30T21:05:09.123Z,2.50
2023-01-30T21:10:12.335Z,2.49
2023-01-30T21:15:15.748Z,2.50
2023-01-30T21:20:19.151Z,2.52
2023-01-30T21:25:22.253Z,2.54
2023-01-30T21:30:25.731Z,2.57
2023-01-30T21:35:29.078Z,2.59
2023-01-30T21:40:50.732Z,2.60
2023-01-30T21:45:59.257Z,2.63
2023-01-30T21:51:11.558Z,2.66
2023-01-30T21:56:14.798Z,2.69
2023-01-30T22:01:18.844Z,2.71
2023-01-30T22:06:22.545Z,2.73
2023-01-30T22:11:27.156Z,2.73
2023-01-30T22:16:30.898Z,2.76
2023-01-30T22:21:38.774Z,2.78
2023-01-30T22:26:41.937Z,2.82
2023-01-30T22:31:45.396Z,2.86
2023-01-30T22:36:48.847Z,2.88
2023-01-30T22:41:51.965Z,2.89
2023-01-30T22:46:55.123Z,2.89
2023-01-30T22:51:58.386Z,2.87
2023-01-30T22:57:01.591Z,2.85
2023-01-30T23:02:04.819Z,2.83
2023-01-30T23:07:08.213Z,2.82
2023-01-30T23:12:29.953Z,2.80
2023-01-30T23:17:51.692Z,2.77
2023-01-30T23:22:54.898Z,2.74
2023-01-30T23:27:58.314Z,2.71
2023-01-30T23:33:01.319Z,2.67
2023-01-30T23:38:16.821Z,2.64
2023-01-30T23:43:20.470Z,2.60
2023-01-30T23:48:23.949Z,2.57
2023-01-30T23:53:27.054Z,2.56
2023-01-30T23:58:30.270Z,2.53
